sensor_id;sensor_type;location;lat;lon;timestamp;pressure;altitude;pressure_sealevel;temperature;humidity
9110;BME280;4590;51.462;6.692;2024-03-29T05:32:54;99032.28;;;10.06;62.12
9110;BME280;4590;51.462;6.692;2024-03-29T05:35:20;99029.97;;;10.08;62.47
9110;BME280;4590;51.462;6.692;2024-03-29T05:37:45;99037.31;;;10.04;64.33
9110;BME280;4590;51.462;6.692;2024-03-29T05:40:15;99041.41;;;10.10;62.81
9110;BME280;4590;51.462;6.692;2024-03-29T05:42:40;99054.03;;;10.11;62.67
9110;BME280;4590;51.462;6.692;2024-03-29T05:45:22;99066.84;;;10.07;63.83
9110;BME280;4590;51.462;6.692;2024-03-29T05:47:48;99044.63;;;10.12;63.23
9110;BME280;4590;51.462;6.692;2024-03-29T05:50:13;99014.28;;;10.09;63.00
9110;BME280;4590;51.462;6.692;2024-03-29T05:52:38;99021.72;;;10.08;63.14
9110;BME280;4590;51.462;6.692;2024-03-29T05:55:04;99013.06;;;10.06;63.18
9110;BME280;4590;51.462;6.692;2024-03-29T05:57:32;99021.50;;;10.01;63.37
9110;BME280;4590;51.462;6.692;2024-03-29T05:59:59;99023.34;;;9.97;63.69
9110;BME280;4590;51.462;6.692;2024-03-29T06:02:25;99021.72;;;9.96;63.70
9110;BME280;4590;51.462;6.692;2024-03-29T06:04:50;99025.63;;;9.95;64.03
9110;BME280;4590;51.462;6.692;2024-03-29T06:07:15;99025.97;;;9.94;64.08
9110;BME280;4590;51.462;6.692;2024-03-29T06:09:41;99019.25;;;9.91;63.71
9110;BME280;4590;51.462;6.692;2024-03-29T06:12:06;99010.53;;;9.89;64.16
9110;BME280;4590;51.462;6.692;2024-03-29T06:14:34;99023.94;;;9.91;64.20
9110;BME280;4590;51.462;6.692;2024-03-29T06:17:18;99025.97;;;9.94;64.27
9110;BME280;4590;51.462;6.692;2024-03-29T06:19:52;99021.41;;;9.98;64.97
9110;BME280;4590;51.462;6.692;2024-03-29T06:22:21;99027.81;;;10.02;65.04
9110;BME280;4590;51.462;6.692;2024-03-29T06:24:46;99016.94;;;10.05;64.87
9110;BME280;4590;51.462;6.692;2024-03-29T06:27:13;99017.38;;;10.07;65.07
9110;BME280;4590;51.462;6.692;2024-03-29T06:29:46;99017.84;;;10.09;64.98
9110;BME280;4590;51.462;6.692;2024-03-29T06:32:12;99022.19;;;10.10;65.19
9110;BME280;4590;51.462;6.692;2024-03-29T06:34:40;99023.66;;;10.08;65.22
9110;BME280;4590;51.462;6.692;2024-03-29T06:37:06;99023.31;;;10.09;65.17
9110;BME280;4590;51.462;6.692;2024-03-29T06:39:32;99030.44;;;9.98;67.64
9110;BME280;4590;51.462;6.692;2024-03-29T06:41:57;99021.28;;;10.06;65.00
9110;BME280;4590;51.462;6.692;2024-03-29T06:44:23;99022.31;;;10.02;65.44
9110;BME280;4590;51.462;6.692;2024-03-29T06:46:48;99022.44;;;10.05;65.31
9110;BME280;4590;51.462;6.692;2024-03-29T06:49:14;99019.91;;;10.00;65.72
9110;BME280;4590;51.462;6.692;2024-03-29T06:51:40;99010.19;;;10.03;65.67
9110;BME280;4590;51.462;6.692;2024-03-29T06:54:06;99011.44;;;9.93;65.81
9110;BME280;4590;51.462;6.692;2024-03-29T06:56:31;99008.25;;;9.91;65.99
9110;BME280;4590;51.462;6.692;2024-03-29T06:58:57;99004.25;;;9.89;65.77
9110;BME280;4590;51.462;6.692;2024-03-29T07:01:22;99008.25;;;9.91;65.98
9110;BME280;4590;51.462;6.692;2024-03-29T07:03:47;99002.50;;;9.96;65.50
9110;BME280;4590;51.462;6.692;2024-03-29T07:06:14;99008.34;;;9.82;66.27
9110;BME280;4590;51.462;6.692;2024-03-29T07:08:40;99013.03;;;9.94;66.23
9110;BME280;4590;51.462;6.692;2024-03-29T07:13:35;99008.47;;;9.98;65.96
9110;BME280;4590;51.462;6.692;2024-03-29T07:16:00;99019.22;;;10.03;65.44
9110;BME280;4590;51.462;6.692;2024-03-29T07:18:26;99034.66;;;10.08;65.36
9110;BME280;4590;51.462;6.692;2024-03-29T07:20:52;99032.03;;;10.11;66.01
9110;BME280;4590;51.462;6.692;2024-03-29T07:23:17;99025.38;;;10.12;65.75
9110;BME280;4590;51.462;6.692;2024-03-29T07:25:44;99022.41;;;10.17;65.51
9110;BME280;4590;51.462;6.692;2024-03-29T07:28:11;99020.25;;;10.23;65.37
9110;BME280;4590;51.462;6.692;2024-03-29T07:30:39;99023.13;;;10.27;66.00
9110;BME280;4590;51.462;6.692;2024-03-29T07:33:05;99024.03;;;10.31;65.73
9110;BME280;4590;51.462;6.692;2024-03-29T07:35:30;99021.16;;;10.27;66.16
9110;BME280;4590;51.462;6.692;2024-03-29T07:37:55;99018.41;;;10.27;66.19
9110;BME280;4590;51.462;6.692;2024-03-29T07:40:22;99034.44;;;10.25;66.66
9110;BME280;4590;51.462;6.692;2024-03-29T07:42:47;99032.97;;;10.28;66.22
9110;BME280;4590;51.462;6.692;2024-03-29T07:45:12;99035.84;;;10.19;67.18
9110;BME280;4590;51.462;6.692;2024-03-29T07:47:38;99045.09;;;10.27;67.28
9110;BME280;4590;51.462;6.692;2024-03-29T07:50:04;99054.97;;;10.28;66.91
9110;BME280;4590;51.462;6.692;2024-03-29T07:52:31;99056.69;;;10.32;66.75
9110;BME280;4590;51.462;6.692;2024-03-29T07:54:56;99070.09;;;10.34;67.19
9110;BME280;4590;51.462;6.692;2024-03-29T07:57:22;99070.53;;;10.36;67.39
9110;BME280;4590;51.462;6.692;2024-03-29T07:59:50;99071.00;;;10.38;66.88
9110;BME280;4590;51.462;6.692;2024-03-29T08:02:15;99070.28;;;10.41;67.22
9110;BME280;4590;51.462;6.692;2024-03-29T08:04:40;99057.69;;;10.40;67.85
9110;BME280;4590;51.462;6.692;2024-03-29T08:07:08;99060.53;;;10.43;67.64
9110;BME280;4590;51.462;6.692;2024-03-29T08:12:43;99063.88;;;10.49;68.17
9110;BME280;4590;51.462;6.692;2024-03-29T08:15:08;99061.31;;;10.56;67.80
9110;BME280;4590;51.462;6.692;2024-03-29T08:17:34;99052.66;;;10.54;68.49
9110;BME280;4590;51.462;6.692;2024-03-29T08:19:59;99062.25;;;10.60;68.54
9110;BME280;4590;51.462;6.692;2024-03-29T08:22:25;99059.94;;;10.62;69.11
9110;BME280;4590;51.462;6.692;2024-03-29T08:24:50;99056.16;;;10.67;69.67
9110;BME280;4590;51.462;6.692;2024-03-29T08:27:15;99053.59;;;10.74;69.83
9110;BME280;4590;51.462;6.692;2024-03-29T08:29:42;99048.97;;;10.90;69.57
9110;BME280;4590;51.462;6.692;2024-03-29T08:32:08;99054.41;;;11.02;68.67
9110;BME280;4590;51.462;6.692;2024-03-29T08:34:35;99068.41;;;11.09;68.82
9110;BME280;4590;51.462;6.692;2024-03-29T08:37:01;99081.56;;;11.16;68.96
9110;BME280;4590;51.462;6.692;2024-03-29T08:39:28;99084.41;;;11.19;69.14
9110;BME280;4590;51.462;6.692;2024-03-29T08:41:53;99064.09;;;11.24;69.00
9110;BME280;4590;51.462;6.692;2024-03-29T08:44:19;99074.00;;;11.13;70.26
9110;BME280;4590;51.462;6.692;2024-03-29T08:46:44;99060.53;;;11.23;69.89
9110;BME280;4590;51.462;6.692;2024-03-29T08:49:09;99068.16;;;11.14;70.80
9110;BME280;4590;51.462;6.692;2024-03-29T08:51:35;99076.50;;;11.18;70.63
9110;BME280;4590;51.462;6.692;2024-03-29T08:54:00;99072.34;;;11.24;70.22
9110;BME280;4590;51.462;6.692;2024-03-29T08:56:29;99076.25;;;11.23;70.54
9110;BME280;4590;51.462;6.692;2024-03-29T08:58:55;99098.94;;;11.32;70.20
9110;BME280;4590;51.462;6.692;2024-03-29T09:01:20;99097.69;;;11.30;70.27
9110;BME280;4590;51.462;6.692;2024-03-29T09:03:45;99100.97;;;11.35;70.16
9110;BME280;4590;51.462;6.692;2024-03-29T09:06:10;99092.72;;;11.35;70.39
9110;BME280;4590;51.462;6.692;2024-03-29T09:08:36;99092.72;;;11.35;70.67
9110;BME280;4590;51.462;6.692;2024-03-29T09:11:01;99093.38;;;11.16;73.10
9110;BME280;4590;51.462;6.692;2024-03-29T09:13:29;99098.94;;;11.32;71.23
9110;BME280;4590;51.462;6.692;2024-03-29T09:15:55;99111.91;;;11.32;71.61
9110;BME280;4590;51.462;6.692;2024-03-29T09:18:21;99110.13;;;11.39;71.30
9110;BME280;4590;51.462;6.692;2024-03-29T09:20:58;99099.75;;;11.33;73.33
9110;BME280;4590;51.462;6.692;2024-03-29T09:23:23;99102.31;;;11.41;72.50
9110;BME280;4590;51.462;6.692;2024-03-29T09:25:50;99111.63;;;11.37;76.84
9110;BME280;4590;51.462;6.692;2024-03-29T09:28:15;99100.59;;;11.49;72.70
9110;BME280;4590;51.462;6.692;2024-03-29T09:30:40;99105.13;;;11.57;72.54
9110;BME280;4590;51.462;6.692;2024-03-29T09:33:06;99101.22;;;11.58;72.86
9110;BME280;4590;51.462;6.692;2024-03-29T09:35:34;99110.84;;;11.64;72.56
9110;BME280;4590;51.462;6.692;2024-03-29T09:37:59;99108.59;;;11.70;72.40
9110;BME280;4590;51.462;6.692;2024-03-29T09:40:26;99117.56;;;11.67;72.65
9110;BME280;4590;51.462;6.692;2024-03-29T09:42:51;99115.13;;;11.49;73.88
9110;BME280;4590;51.462;6.692;2024-03-29T09:45:18;99107.31;;;11.51;74.03
9110;BME280;4590;51.462;6.692;2024-03-29T09:47:44;99103.38;;;11.65;72.50
9110;BME280;4590;51.462;6.692;2024-03-29T09:50:11;99108.25;;;11.71;72.21
9110;BME280;4590;51.462;6.692;2024-03-29T09:52:37;99113.25;;;11.81;71.71
9110;BME280;4590;51.462;6.692;2024-03-29T09:55:05;99108.19;;;11.83;72.03
9110;BME280;4590;51.462;6.692;2024-03-29T09:57:32;99121.47;;;11.93;71.54
9110;BME280;4590;51.462;6.692;2024-03-29T09:59:57;99121.19;;;11.99;72.43
9110;BME280;4590;51.462;6.692;2024-03-29T10:02:27;99132.16;;;12.11;71.71
9110;BME280;4590;51.462;6.692;2024-03-29T10:04:53;99138.28;;;12.20;71.78
9110;BME280;4590;51.462;6.692;2024-03-29T10:07:21;99130.63;;;12.29;71.69
9110;BME280;4590;51.462;6.692;2024-03-29T10:09:47;99134.00;;;12.38;71.85
9110;BME280;4590;51.462;6.692;2024-03-29T10:12:13;99136.66;;;12.50;71.30
9110;BME280;4590;51.462;6.692;2024-03-29T10:14:48;99153.03;;;12.59;71.50
9110;BME280;4590;51.462;6.692;2024-03-29T10:17:20;99156.47;;;12.72;70.98
9110;BME280;4590;51.462;6.692;2024-03-29T10:19:46;99153.44;;;12.77;71.35
9110;BME280;4590;51.462;6.692;2024-03-29T10:22:12;99146.69;;;12.74;72.19
9110;BME280;4590;51.462;6.692;2024-03-29T10:24:38;99147.88;;;12.92;70.84
9110;BME280;4590;51.462;6.692;2024-03-29T10:27:04;99146.59;;;13.06;70.34
9110;BME280;4590;51.462;6.692;2024-03-29T10:29:29;99150.84;;;13.19;70.29
9110;BME280;4590;51.462;6.692;2024-03-29T10:31:55;99148.66;;;13.28;70.22
9110;BME280;4590;51.462;6.692;2024-03-29T10:34:21;99145.91;;;13.28;70.04
9110;BME280;4590;51.462;6.692;2024-03-29T10:36:49;99151.28;;;13.40;69.51
9110;BME280;4590;51.462;6.692;2024-03-29T10:39:16;99142.88;;;13.52;69.40
9110;BME280;4590;51.462;6.692;2024-03-29T10:41:43;99145.41;;;13.61;69.39
9110;BME280;4590;51.462;6.692;2024-03-29T10:44:10;99147.50;;;13.67;69.19
9110;BME280;4590;51.462;6.692;2024-03-29T10:46:37;99134.97;;;13.74;69.01
9110;BME280;4590;51.462;6.692;2024-03-29T10:49:06;99139.03;;;13.80;69.01
9110;BME280;4590;51.462;6.692;2024-03-29T10:51:33;99136.00;;;13.85;68.91
9110;BME280;4590;51.462;6.692;2024-03-29T10:53:59;99131.63;;;13.84;68.75
9110;BME280;4590;51.462;6.692;2024-03-29T10:56:26;99133.78;;;13.94;68.48
9110;BME280;4590;51.462;6.692;2024-03-29T10:58:56;99127.16;;;13.98;68.43
9110;BME280;4590;51.462;6.692;2024-03-29T11:01:26;99125.28;;;14.06;68.38
9110;BME280;4590;51.462;6.692;2024-03-29T11:03:54;99133.66;;;14.10;68.14
9110;BME280;4590;51.462;6.692;2024-03-29T11:06:26;99122.75;;;14.20;67.97
9110;BME280;4590;51.462;6.692;2024-03-29T11:08:56;99130.47;;;14.30;68.07
9110;BME280;4590;51.462;6.692;2024-03-29T11:11:24;99124.59;;;14.35;67.90
9110;BME280;4590;51.462;6.692;2024-03-29T11:13:58;99134.94;;;14.38;66.74
9110;BME280;4590;51.462;6.692;2024-03-29T11:16:28;99139.56;;;14.54;67.54
9110;BME280;4590;51.462;6.692;2024-03-29T11:18:54;99140.91;;;14.63;67.54
9110;BME280;4590;51.462;6.692;2024-03-29T11:21:19;99146.59;;;14.74;67.50
9110;BME280;4590;51.462;6.692;2024-03-29T11:23:50;99153.81;;;14.82;67.13
9110;BME280;4590;51.462;6.692;2024-03-29T11:26:19;99153.50;;;14.87;66.43
9110;BME280;4590;51.462;6.692;2024-03-29T11:28:52;99153.50;;;14.87;65.67
9110;BME280;4590;51.462;6.692;2024-03-29T11:31:17;99156.84;;;15.00;66.15
9110;BME280;4590;51.462;6.692;2024-03-29T11:33:48;99143.81;;;15.00;66.02
9110;BME280;4590;51.462;6.692;2024-03-29T11:36:18;99139.53;;;15.06;65.56
9110;BME280;4590;51.462;6.692;2024-03-29T11:38:48;99131.31;;;15.14;65.15
9110;BME280;4590;51.462;6.692;2024-03-29T11:41:16;99112.44;;;15.23;65.14
9110;BME280;4590;51.462;6.692;2024-03-29T11:43:42;99112.94;;;15.32;64.77
9110;BME280;4590;51.462;6.692;2024-03-29T11:46:10;99102.38;;;15.41;64.50
9110;BME280;4590;51.462;6.692;2024-03-29T11:48:36;99125.84;;;15.51;64.36
9110;BME280;4590;51.462;6.692;2024-03-29T11:51:03;99137.84;;;15.58;63.86
9110;BME280;4590;51.462;6.692;2024-03-29T11:53:29;99146.66;;;15.67;63.60
9110;BME280;4590;51.462;6.692;2024-03-29T11:55:57;99167.34;;;15.73;63.00
9110;BME280;4590;51.462;6.692;2024-03-29T11:58:24;99176.91;;;15.79;62.77
9110;BME280;4590;51.462;6.692;2024-03-29T12:00:50;99191.09;;;15.74;60.75
9110;BME280;4590;51.462;6.692;2024-03-29T12:03:16;99184.94;;;15.92;62.30
9110;BME280;4590;51.462;6.692;2024-03-29T12:05:43;99192.16;;;15.96;61.93
9110;BME280;4590;51.462;6.692;2024-03-29T12:08:09;99196.13;;;15.99;61.13
9110;BME280;4590;51.462;6.692;2024-03-29T12:10:35;99195.00;;;16.03;60.90
9110;BME280;4590;51.462;6.692;2024-03-29T12:13:05;99193.47;;;16.09;60.72
9110;BME280;4590;51.462;6.692;2024-03-29T12:15:30;99193.84;;;16.04;59.30
9110;BME280;4590;51.462;6.692;2024-03-29T12:17:57;99189.94;;;16.12;59.87
9110;BME280;4590;51.462;6.692;2024-03-29T12:20:23;99182.09;;;16.22;60.00
9110;BME280;4590;51.462;6.692;2024-03-29T12:22:48;99184.09;;;16.21;59.44
9110;BME280;4590;51.462;6.692;2024-03-29T12:25:13;99187.13;;;16.09;57.84
9110;BME280;4590;51.462;6.692;2024-03-29T12:27:39;99184.06;;;16.18;57.79
9110;BME280;4590;51.462;6.692;2024-03-29T12:30:05;99185.28;;;16.20;57.11
9110;BME280;4590;51.462;6.692;2024-03-29T12:32:31;99187.25;;;16.23;56.82
9110;BME280;4590;51.462;6.692;2024-03-29T12:35:13;99191.22;;;16.22;56.12
9110;BME280;4590;51.462;6.692;2024-03-29T12:37:47;99203.91;;;16.23;55.37
9110;BME280;4590;51.462;6.692;2024-03-29T12:40:16;99191.25;;;16.26;55.37
9110;BME280;4590;51.462;6.692;2024-03-29T12:42:43;99189.69;;;16.28;55.58
9110;BME280;4590;51.462;6.692;2024-03-29T12:45:09;99188.16;;;16.31;55.74
9110;BME280;4590;51.462;6.692;2024-03-29T12:47:35;99200.09;;;16.35;55.53
9110;BME280;4590;51.462;6.692;2024-03-29T12:50:02;99191.81;;;16.42;55.35
9110;BME280;4590;51.462;6.692;2024-03-29T12:52:36;99193.78;;;16.41;54.11
9110;BME280;4590;51.462;6.692;2024-03-29T12:55:01;99193.09;;;16.52;54.56
9110;BME280;4590;51.462;6.692;2024-03-29T12:57:27;99192.69;;;16.49;53.86
9110;BME280;4590;51.462;6.692;2024-03-29T12:59:52;99199.91;;;16.61;53.75
9110;BME280;4590;51.462;6.692;2024-03-29T13:02:17;99194.47;;;16.68;53.83
9110;BME280;4590;51.462;6.692;2024-03-29T13:04:42;99198.88;;;16.76;53.74
9110;BME280;4590;51.462;6.692;2024-03-29T13:07:09;99190.19;;;16.85;53.53
9110;BME280;4590;51.462;6.692;2024-03-29T13:09:35;99196.19;;;16.91;53.45
9110;BME280;4590;51.462;6.692;2024-03-29T13:12:00;99203.00;;;16.97;53.28
9110;BME280;4590;51.462;6.692;2024-03-29T13:14:25;99200.16;;;16.90;52.31
9110;BME280;4590;51.462;6.692;2024-03-29T13:16:50;99200.59;;;16.95;52.20
9110;BME280;4590;51.462;6.692;2024-03-29T13:19:16;99200.59;;;16.95;51.95
9110;BME280;4590;51.462;6.692;2024-03-29T13:21:41;99199.41;;;16.96;52.28
9110;BME280;4590;51.462;6.692;2024-03-29T13:24:06;99215.72;;;16.98;52.41
9110;BME280;4590;51.462;6.692;2024-03-29T13:26:32;99212.13;;;16.97;51.95
9110;BME280;4590;51.462;6.692;2024-03-29T13:28:57;99211.72;;;16.95;51.95
9110;BME280;4590;51.462;6.692;2024-03-29T13:31:22;99223.25;;;16.97;51.94
9110;BME280;4590;51.462;6.692;2024-03-29T13:33:50;99205.41;;;16.98;51.45
9110;BME280;4590;51.462;6.692;2024-03-29T13:36:15;99223.59;;;16.92;50.77
9110;BME280;4590;51.462;6.692;2024-03-29T13:38:40;99215.31;;;16.99;51.13
9110;BME280;4590;51.462;6.692;2024-03-29T13:41:06;99219.69;;;17.04;51.07
9110;BME280;4590;51.462;6.692;2024-03-29T13:43:34;99232.41;;;17.05;51.17
9110;BME280;4590;51.462;6.692;2024-03-29T13:46:03;99244.34;;;17.05;50.81
9110;BME280;4590;51.462;6.692;2024-03-29T13:48:29;99250.25;;;17.00;50.95
9110;BME280;4590;51.462;6.692;2024-03-29T13:50:54;99238.75;;;16.98;51.04
9110;BME280;4590;51.462;6.692;2024-03-29T13:53:19;99218.06;;;16.96;50.88
9110;BME280;4590;51.462;6.692;2024-03-29T13:55:45;99224.41;;;16.93;50.93
9110;BME280;4590;51.462;6.692;2024-03-29T13:58:10;99214.06;;;16.90;50.79
9110;BME280;4590;51.462;6.692;2024-03-29T14:00:35;99210.47;;;16.89;50.80
9110;BME280;4590;51.462;6.692;2024-03-29T14:03:00;99214.00;;;16.86;50.49
9110;BME280;4590;51.462;6.692;2024-03-29T14:05:27;99215.59;;;16.87;50.68
9110;BME280;4590;51.462;6.692;2024-03-29T14:07:52;99207.66;;;16.82;50.52
9110;BME280;4590;51.462;6.692;2024-03-29T14:10:17;99202.91;;;16.86;50.76
9110;BME280;4590;51.462;6.692;2024-03-29T14:12:44;99201.69;;;16.80;50.26
9110;BME280;4590;51.462;6.692;2024-03-29T14:15:10;99199.38;;;16.93;50.41
9110;BME280;4590;51.462;6.692;2024-03-29T14:17:36;99195.88;;;16.99;50.62
9110;BME280;4590;51.462;6.692;2024-03-29T14:20:01;99200.28;;;17.07;50.37
9110;BME280;4590;51.462;6.692;2024-03-29T14:22:26;99202.28;;;17.10;49.89
9110;BME280;4590;51.462;6.692;2024-03-29T14:24:52;99197.16;;;17.12;49.28
9110;BME280;4590;51.462;6.692;2024-03-29T14:27:17;99190.41;;;17.17;49.08
9110;BME280;4590;51.462;6.692;2024-03-29T14:29:42;99210.97;;;17.05;48.98
9110;BME280;4590;51.462;6.692;2024-03-29T14:32:10;99211.47;;;17.18;49.05
9110;BME280;4590;51.462;6.692;2024-03-29T14:34:35;99207.53;;;17.23;49.21
9110;BME280;4590;51.462;6.692;2024-03-29T14:37:04;99223.44;;;17.26;49.17
9110;BME280;4590;51.462;6.692;2024-03-29T14:39:29;99229.72;;;17.19;48.78
9110;BME280;4590;51.462;6.692;2024-03-29T14:41:55;99224.22;;;17.26;48.62
9110;BME280;4590;51.462;6.692;2024-03-29T14:44:23;99223.84;;;17.28;48.63
9110;BME280;4590;51.462;6.692;2024-03-29T14:46:49;99238.44;;;17.14;48.07
9110;BME280;4590;51.462;6.692;2024-03-29T14:49:14;99249.63;;;17.25;47.67
9110;BME280;4590;51.462;6.692;2024-03-29T14:51:42;99224.53;;;17.10;46.96
9110;BME280;4590;51.462;6.692;2024-03-29T14:54:07;99218.22;;;17.21;46.94
9110;BME280;4590;51.462;6.692;2024-03-29T14:56:33;99219.00;;;17.17;47.00
9110;BME280;4590;51.462;6.692;2024-03-29T14:59:03;99224.63;;;17.25;46.86
9110;BME280;4590;51.462;6.692;2024-03-29T15:01:35;99222.25;;;17.27;47.30
9110;BME280;4590;51.462;6.692;2024-03-29T15:04:00;99219.88;;;17.29;47.09
9110;BME280;4590;51.462;6.692;2024-03-29T15:06:25;99210.75;;;17.28;47.31
9110;BME280;4590;51.462;6.692;2024-03-29T15:08:56;99221.06;;;17.28;46.90
9110;BME280;4590;51.462;6.692;2024-03-29T15:11:25;99219.44;;;17.23;47.33
9110;BME280;4590;51.462;6.692;2024-03-29T15:13:51;99219.19;;;16.84;45.74
9110;BME280;4590;51.462;6.692;2024-03-29T15:16:16;99221.78;;;17.17;47.23
9110;BME280;4590;51.462;6.692;2024-03-29T15:18:42;99230.19;;;17.25;47.42
9110;BME280;4590;51.462;6.692;2024-03-29T15:21:08;99241.28;;;17.25;47.16
9110;BME280;4590;51.462;6.692;2024-03-29T15:23:34;99243.69;;;17.26;46.99
9110;BME280;4590;51.462;6.692;2024-03-29T15:26:01;99238.91;;;17.23;46.79
9110;BME280;4590;51.462;6.692;2024-03-29T15:28:27;99229.00;;;17.26;46.71
9110;BME280;4590;51.462;6.692;2024-03-29T15:31:16;99228.13;;;17.14;45.72
9110;BME280;4590;51.462;6.692;2024-03-29T15:33:44;99226.19;;;17.22;46.41
9110;BME280;4590;51.462;6.692;2024-03-29T15:36:10;99226.56;;;17.21;46.86
9110;BME280;4590;51.462;6.692;2024-03-29T15:38:37;99225.81;;;17.27;46.81
9110;BME280;4590;51.462;6.692;2024-03-29T15:41:03;99223.41;;;17.22;46.58
9110;BME280;4590;51.462;6.692;2024-03-29T15:43:30;99231.75;;;17.22;46.37
9110;BME280;4590;51.462;6.692;2024-03-29T15:45:55;99249.63;;;17.25;46.38
9110;BME280;4590;51.462;6.692;2024-03-29T15:48:22;99247.22;;;17.19;46.05
9110;BME280;4590;51.462;6.692;2024-03-29T15:50:47;99243.59;;;17.12;45.88
9110;BME280;4590;51.462;6.692;2024-03-29T15:53:13;99249.53;;;17.10;45.70
9110;BME280;4590;51.462;6.692;2024-03-29T15:55:38;99247.97;;;17.13;45.79
9110;BME280;4590;51.462;6.692;2024-03-29T15:58:04;99246.38;;;17.12;45.91
9110;BME280;4590;51.462;6.692;2024-03-29T16:00:29;99249.53;;;17.10;45.80
9110;BME280;4590;51.462;6.692;2024-03-29T16:02:57;99255.09;;;17.10;46.01
9110;BME280;4590;51.462;6.692;2024-03-29T16:05:23;99270.97;;;17.10;46.28
9110;BME280;4590;51.462;6.692;2024-03-29T16:07:48;99267.41;;;17.09;46.23
9110;BME280;4590;51.462;6.692;2024-03-29T16:10:13;99272.13;;;17.05;46.41
9110;BME280;4590;51.462;6.692;2024-03-29T16:12:39;99275.25;;;17.00;46.39
9110;BME280;4590;51.462;6.692;2024-03-29T16:15:06;99281.22;;;16.99;46.19
9110;BME280;4590;51.462;6.692;2024-03-29T16:17:33;99272.81;;;16.92;46.43
9110;BME280;4590;51.462;6.692;2024-03-29T16:19:58;99275.47;;;16.77;47.12
9110;BME280;4590;51.462;6.692;2024-03-29T16:22:24;99292.22;;;16.88;47.45
9110;BME280;4590;51.462;6.692;2024-03-29T16:24:49;99291.75;;;16.79;47.69
9110;BME280;4590;51.462;6.692;2024-03-29T16:27:14;99290.88;;;16.71;48.16
9110;BME280;4590;51.462;6.692;2024-03-29T16:29:39;99290.31;;;16.59;48.70
9110;BME280;4590;51.462;6.692;2024-03-29T16:32:05;99273.63;;;16.55;48.75
9110;BME280;4590;51.462;6.692;2024-03-29T16:34:30;99258.94;;;16.51;49.11
9110;BME280;4590;51.462;6.692;2024-03-29T16:36:56;99267.63;;;16.49;49.12
9110;BME280;4590;51.462;6.692;2024-03-29T16:39:21;99293.84;;;16.52;49.41
9110;BME280;4590;51.462;6.692;2024-03-29T16:41:46;99298.13;;;16.46;49.50
9110;BME280;4590;51.462;6.692;2024-03-29T16:44:13;99302.88;;;16.45;49.52
9110;BME280;4590;51.462;6.692;2024-03-29T16:46:38;99307.56;;;16.38;49.91
9110;BME280;4590;51.462;6.692;2024-03-29T16:49:04;99301.25;;;16.41;49.76
9110;BME280;4590;51.462;6.692;2024-03-29T16:51:29;99306.28;;;16.28;49.86
9110;BME280;4590;51.462;6.692;2024-03-29T16:53:54;99307.97;;;16.36;50.05
9110;BME280;4590;51.462;6.692;2024-03-29T16:56:19;99308.19;;;16.24;50.39
9110;BME280;4590;51.462;6.692;2024-03-29T16:58:45;99297.94;;;16.28;50.02
9110;BME280;4590;51.462;6.692;2024-03-29T17:01:10;99295.97;;;16.29;50.39
9110;BME280;4590;51.462;6.692;2024-03-29T17:03:35;99299.06;;;16.24;50.30
9110;BME280;4590;51.462;6.692;2024-03-29T17:06:01;99297.47;;;16.23;50.29
9110;BME280;4590;51.462;6.692;2024-03-29T17:08:26;99298.25;;;16.20;50.54
9110;BME280;4590;51.462;6.692;2024-03-29T17:10:51;99303.81;;;16.20;50.29
9110;BME280;4590;51.462;6.692;2024-03-29T17:13:17;99290.63;;;16.13;50.49
9110;BME280;4590;51.462;6.692;2024-03-29T17:15:42;99294.03;;;15.99;50.98
9110;BME280;4590;51.462;6.692;2024-03-29T17:18:08;99300.72;;;15.95;50.87
9110;BME280;4590;51.462;6.692;2024-03-29T17:20:33;99304.22;;;15.92;51.16
9110;BME280;4590;51.462;6.692;2024-03-29T17:22:58;99312.72;;;16.02;50.78
9110;BME280;4590;51.462;6.692;2024-03-29T17:25:24;99311.44;;;15.96;50.92
9110;BME280;4590;51.462;6.692;2024-03-29T17:27:49;99298.78;;;15.99;51.05
9110;BME280;4590;51.462;6.692;2024-03-29T17:30:14;99301.13;;;15.97;50.86
9110;BME280;4590;51.462;6.692;2024-03-29T17:32:40;99286.78;;;15.91;51.04
9110;BME280;4590;51.462;6.692;2024-03-29T17:35:05;99300.66;;;15.91;50.96
9110;BME280;4590;51.462;6.692;2024-03-29T17:37:31;99307.91;;;15.99;51.00
9110;BME280;4590;51.462;6.692;2024-03-29T17:39:56;99301.06;;;15.90;51.00
9110;BME280;4590;51.462;6.692;2024-03-29T17:42:21;99305.84;;;15.93;51.14
9110;BME280;4590;51.462;6.692;2024-03-29T17:44:47;99312.47;;;15.85;51.38
9110;BME280;4590;51.462;6.692;2024-03-29T17:47:13;99302.13;;;15.82;51.57
9110;BME280;4590;51.462;6.692;2024-03-29T17:49:38;99317.47;;;15.72;52.09
9110;BME280;4590;51.462;6.692;2024-03-29T17:52:04;99309.66;;;15.81;52.05
9110;BME280;4590;51.462;6.692;2024-03-29T17:54:29;99318.34;;;15.79;51.74
9110;BME280;4590;51.462;6.692;2024-03-29T17:56:54;99330.53;;;15.71;52.09
9110;BME280;4590;51.462;6.692;2024-03-29T17:59:19;99337.56;;;15.65;52.42
9110;BME280;4590;51.462;6.692;2024-03-29T18:01:45;99341.63;;;15.71;52.46
9110;BME280;4590;51.462;6.692;2024-03-29T18:04:10;99336.81;;;15.68;52.54
9110;BME280;4590;51.462;6.692;2024-03-29T18:06:36;99343.28;;;15.53;52.72
9110;BME280;4590;51.462;6.692;2024-03-29T18:09:02;99353.69;;;15.60;52.42
9110;BME280;4590;51.462;6.692;2024-03-29T18:11:27;99345.81;;;15.62;52.56
9110;BME280;4590;51.462;6.692;2024-03-29T18:13:53;99339.84;;;15.60;52.63
9110;BME280;4590;51.462;6.692;2024-03-29T18:16:19;99346.28;;;15.41;53.19
9110;BME280;4590;51.462;6.692;2024-03-29T18:18:45;99325.97;;;15.33;53.14
9110;BME280;4590;51.462;6.692;2024-03-29T18:21:12;99344.75;;;15.21;53.79
9110;BME280;4590;51.462;6.692;2024-03-29T18:23:37;99346.59;;;15.36;53.48
9110;BME280;4590;51.462;6.692;2024-03-29T18:26:03;99352.13;;;15.36;53.62
9110;BME280;4590;51.462;6.692;2024-03-29T18:28:28;99350.03;;;15.29;53.65
9110;BME280;4590;51.462;6.692;2024-03-29T18:30:53;99350.09;;;15.33;53.77
9110;BME280;4590;51.462;6.692;2024-03-29T18:33:21;99359.84;;;15.23;53.30
9110;BME280;4590;51.462;6.692;2024-03-29T18:35:49;99355.91;;;15.24;53.47
9110;BME280;4590;51.462;6.692;2024-03-29T18:38:15;99367.03;;;15.28;53.44
9110;BME280;4590;51.462;6.692;2024-03-29T18:40:40;99366.38;;;15.12;54.13
9110;BME280;4590;51.462;6.692;2024-03-29T18:43:05;99368.34;;;15.11;54.32
9110;BME280;4590;51.462;6.692;2024-03-29T18:45:31;99388.84;;;15.06;54.14
9110;BME280;4590;51.462;6.692;2024-03-29T18:47:56;99391.00;;;15.17;53.70
9110;BME280;4590;51.462;6.692;2024-03-29T18:50:21;99383.09;;;14.96;54.56
9110;BME280;4590;51.462;6.692;2024-03-29T18:52:47;99393.59;;;15.06;53.95
9110;BME280;4590;51.462;6.692;2024-03-29T18:55:15;99400.78;;;14.88;54.43